Time;durP1;ratioP1;P1;durP2;ratioP2;P2;SDS_P1;SDS_P2;PMS_P1;PMS_P2;Temp;Humidity;BMP_temperature;BMP_pressure;BME280_temperature;BME280_humidity;BME280_pressure;Samples;Min_cycle;Max_cycle;Signal;HPM_P1;HPM_P2
2022/12/10 00:02:08;;;;;;;;;;;;;;;3.41;83.14;100494.81;7350360;19;21865;-65
2022/12/10 00:04:36;;;;;;;;;;;;;;;3.42;83.04;100497.31;7350938;19;20391;-66
2022/12/10 00:07:03;;;;;;;;;;;;;;;3.39;83.16;100500.16;7345582;19;19926;-64
2022/12/10 00:09:30;;;;;;;;;;;;;;;3.40;83.06;100491.38;7348009;19;20509;-66
2022/12/10 00:11:57;;;;;;;;;;;;;;;3.39;83.21;100501.91;7348641;19;19915;-64
2022/12/10 00:14:24;;;;;;;;;;;;;;;3.40;83.27;100503.59;7348217;19;20489;-65
2022/12/10 00:16:51;;;;;;;;;;;;;;;3.39;83.16;100499.31;7347040;19;20411;-65
2022/12/10 00:19:17;;;;;;;;;;;;;;;3.39;83.44;100499.31;7350974;19;19930;-64
2022/12/10 00:21:45;;;;;;;;;;;;;;;3.41;82.83;100502.63;7345190;19;20964;-64
2022/12/10 00:24:12;;;;;;;;;;;;;;;3.42;82.75;100499.06;7348775;19;19937;-64
2022/12/10 00:26:39;;;;;;;;;;;;;;;3.38;82.66;100501.09;7349526;19;20013;-65
2022/12/10 00:29:07;;;;;;;;;;;;;;;3.39;82.83;100507.13;7358347;19;19926;-65
2022/12/10 00:31:35;;;;;;;;;;;;;;;3.38;82.90;100503.69;7354211;19;19929;-65
2022/12/10 00:34:03;;;;;;;;;;;;;;;3.38;82.81;100500.25;7355220;19;19922;-64
2022/12/10 00:36:33;;;;;;;;;;;;;;;3.36;83.25;100500.38;7349385;19;20038;-64
2022/12/10 00:39:01;;;;;;;;;;;;;;;3.36;83.05;100499.53;7354820;19;19982;-65
2022/12/10 00:41:28;;;;;;;;;;;;;;;3.35;82.77;100496.09;7353782;19;19927;-65
2022/12/10 00:43:55;;;;;;;;;;;;;;;3.33;82.88;100502.38;7356788;19;19926;-64
2022/12/10 00:46:22;;;;;;;;;;;;;;;3.28;82.69;100502.72;7353758;19;20036;-64
2022/12/10 00:48:49;;;;;;;;;;;;;;;3.23;82.30;100501.41;7358161;19;19937;-65
2022/12/10 00:51:17;;;;;;;;;;;;;;;3.20;82.44;100509.44;7354104;19;19923;-65
2022/12/10 00:53:45;;;;;;;;;;;;;;;3.18;82.78;100506.13;7354980;19;19919;-65
2022/12/10 00:56:13;;;;;;;;;;;;;;;3.14;82.63;100505.53;7352772;19;20130;-65
2022/12/10 00:58:40;;;;;;;;;;;;;;;3.09;82.72;100512.00;7354856;19;19929;-64
2022/12/10 01:01:11;;;;;;;;;;;;;;;3.08;82.84;100523.31;7352291;19;19923;-64
2022/12/10 01:03:39;;;;;;;;;;;;;;;3.08;83.49;100511.16;7357830;19;19922;-65
2022/12/10 01:06:08;;;;;;;;;;;;;;;3.08;83.07;100518.97;7354844;19;19919;-66
2022/12/10 01:08:34;;;;;;;;;;;;;;;3.07;83.27;100516.47;7356364;19;19921;-64
2022/12/10 01:11:01;;;;;;;;;;;;;;;3.07;83.01;100522.50;7356300;19;19941;-64
2022/12/10 01:13:28;;;;;;;;;;;;;;;3.06;83.04;100517.41;7357182;19;19931;-65
2022/12/10 01:15:55;;;;;;;;;;;;;;;3.04;83.17;100517.53;7354973;19;20064;-64
2022/12/10 01:18:22;;;;;;;;;;;;;;;3.06;83.58;100513.03;7354749;19;19955;-64
2022/12/10 01:20:48;;;;;;;;;;;;;;;3.06;83.30;100525.19;7352888;19;19922;-64
2022/12/10 01:23:15;;;;;;;;;;;;;;;3.06;83.02;100507.00;7353986;19;19914;-64
2022/12/10 01:25:42;;;;;;;;;;;;;;;3.07;83.37;100522.50;7356788;19;21554;-65
2022/12/10 01:28:09;;;;;;;;;;;;;;;3.09;83.52;100525.00;7353791;19;20312;-65
2022/12/10 01:30:36;;;;;;;;;;;;;;;3.09;83.90;100522.41;7353398;19;20295;-64
2022/12/10 01:33:02;;;;;;;;;;;;;;;3.03;83.61;100523.66;7354258;19;20244;-64
2022/12/10 01:35:29;;;;;;;;;;;;;;;2.99;83.93;100525.66;7356414;19;19934;-64
2022/12/10 01:37:56;;;;;;;;;;;;;;;3.01;83.84;100522.94;7351813;19;19945;-64
2022/12/10 01:40:23;;;;;;;;;;;;;;;3.03;83.84;100518.47;7356168;19;19927;-63
2022/12/10 01:42:49;;;;;;;;;;;;;;;3.02;83.35;100519.41;7350978;19;19982;-65
2022/12/10 01:45:17;;;;;;;;;;;;;;;2.98;83.04;100524.00;7353413;19;19922;-64
2022/12/10 01:47:43;;;;;;;;;;;;;;;2.96;83.20;100517.25;7351981;19;19930;-64
2022/12/10 01:50:10;;;;;;;;;;;;;;;2.94;82.88;100519.97;7356197;19;20256;-65
2022/12/10 01:52:38;;;;;;;;;;;;;;;2.95;83.03;100523.38;7349128;19;20102;-64
2022/12/10 01:55:08;;;;;;;;;;;;;;;2.95;83.17;100524.22;7354394;19;19933;-65
2022/12/10 01:57:34;;;;;;;;;;;;;;;2.94;82.90;100516.56;7349982;19;19926;-65
2022/12/10 02:00:03;;;;;;;;;;;;;;;2.93;82.81;100514.88;7353192;19;19918;-66
2022/12/10 02:02:40;;;;;;;;;;;;;;;2.89;82.93;100529.03;7351984;19;19919;-65
2022/12/10 02:05:08;;;;;;;;;;;;;;;2.86;82.79;100524.88;7354128;19;19923;-63
2022/12/10 02:07:44;;;;;;;;;;;;;;;2.84;83.30;100526.78;7352195;19;19927;-65
2022/12/10 02:10:12;;;;;;;;;;;;;;;2.83;83.81;100539.88;7351785;19;20329;-67
2022/12/10 02:12:39;;;;;;;;;;;;;;;2.83;84.62;100534.69;7351777;19;20926;-66
2022/12/10 02:15:10;;;;;;;;;;;;;;;2.83;85.34;100524.28;7354557;19;19931;-64
2022/12/10 02:17:39;;;;;;;;;;;;;;;2.84;85.13;100534.56;7349704;19;20558;-65
2022/12/10 02:20:09;;;;;;;;;;;;;;;2.83;84.47;100526.88;7352713;19;20169;-65
2022/12/10 02:22:40;;;;;;;;;;;;;;;2.84;84.41;100537.19;7347541;19;19946;-64
2022/12/10 02:25:08;;;;;;;;;;;;;;;2.84;84.40;100526.78;7352643;19;19925;-65
2022/12/10 02:27:46;;;;;;;;;;;;;;;2.85;84.52;100533.63;7350576;19;19927;-64
2022/12/10 02:30:13;;;;;;;;;;;;;;;2.83;84.49;100532.91;7353369;19;19926;-64
2022/12/10 02:32:42;;;;;;;;;;;;;;;2.79;83.79;100534.09;7351969;19;19930;-65
2022/12/10 02:35:13;;;;;;;;;;;;;;;2.80;84.08;100532.28;7352123;19;19925;-65
2022/12/10 02:37:45;;;;;;;;;;;;;;;2.79;84.55;100530.66;7344856;19;20448;-64
2022/12/10 02:40:15;;;;;;;;;;;;;;;2.79;84.26;100533.25;7351072;19;20882;-64
2022/12/10 02:42:44;;;;;;;;;;;;;;;2.79;84.29;100528.06;7352117;19;19919;-65
2022/12/10 02:45:11;;;;;;;;;;;;;;;2.78;84.16;100522.03;7353763;19;19939;-64
2022/12/10 02:47:38;;;;;;;;;;;;;;;2.79;84.07;100525.47;7347200;19;19927;-63
2022/12/10 02:50:06;;;;;;;;;;;;;;;2.79;84.16;100523.69;7351652;19;19930;-65
2022/12/10 02:52:33;;;;;;;;;;;;;;;2.81;83.91;100516.59;7347640;19;19919;-64
2022/12/10 02:55:00;;;;;;;;;;;;;;;2.82;83.85;100512.22;7351267;19;19919;-65
2022/12/10 02:57:30;;;;;;;;;;;;;;;2.81;83.66;100519.19;7349247;19;20567;-64
2022/12/10 02:59:58;;;;;;;;;;;;;;;2.83;83.82;100519.94;7350275;19;20050;-65
2022/12/10 03:02:34;;;;;;;;;;;;;;;2.80;83.99;100520.13;7353765;19;19923;-64
2022/12/10 03:05:04;;;;;;;;;;;;;;;2.76;84.10;100513.50;7352012;19;19930;-64
2022/12/10 03:07:31;;;;;;;;;;;;;;;2.75;84.20;100518.81;7350262;19;19925;-66
2022/12/10 03:10:02;;;;;;;;;;;;;;;2.70;83.91;100518.31;7352053;19;19930;-64
2022/12/10 03:12:31;;;;;;;;;;;;;;;2.63;84.13;100512.75;7350210;19;20034;-64
2022/12/10 03:14:59;;;;;;;;;;;;;;;2.58;84.85;100518.28;7350198;19;20019;-64
2022/12/10 03:17:28;;;;;;;;;;;;;;;2.53;85.45;100527.31;7349648;19;20224;-64
2022/12/10 03:19:55;;;;;;;;;;;;;;;2.50;85.27;100522.34;7352431;19;19926;-64
2022/12/10 03:22:22;;;;;;;;;;;;;;;2.47;85.45;100517.38;7348522;19;21586;-64
2022/12/10 03:24:50;;;;;;;;;;;;;;;2.48;85.67;100522.47;7349011;19;20375;-64
2022/12/10 03:27:18;;;;;;;;;;;;;;;2.48;85.50;100519.88;7348374;19;19926;-64
2022/12/10 03:29:47;;;;;;;;;;;;;;;2.50;85.53;100519.72;7349815;19;19923;-65
2022/12/10 03:32:15;;;;;;;;;;;;;;;2.53;86.43;100516.94;7348915;19;19918;-66
2022/12/10 03:34:43;;;;;;;;;;;;;;;2.55;87.01;100515.88;7349591;19;20033;-64
2022/12/10 03:37:10;;;;;;;;;;;;;;;2.57;87.01;100515.78;7345214;19;19922;-65
2022/12/10 03:39:38;;;;;;;;;;;;;;;2.56;86.79;100517.53;7349209;19;19938;-64
2022/12/10 03:42:05;;;;;;;;;;;;;;;2.57;87.05;100523.56;7349027;19;19926;-64
2022/12/10 03:44:34;;;;;;;;;;;;;;;2.55;86.17;100517.63;7351184;19;20336;-64
2022/12/10 03:47:02;;;;;;;;;;;;;;;2.56;85.81;100522.72;7348823;19;19929;-64
2022/12/10 03:49:29;;;;;;;;;;;;;;;2.56;86.09;100529.69;7350005;19;20413;-64
2022/12/10 03:51:56;;;;;;;;;;;;;;;2.54;86.35;100529.78;7348789;19;19958;-64
2022/12/10 03:54:23;;;;;;;;;;;;;;;2.55;86.93;100525.44;7351501;19;19922;-64
2022/12/10 03:56:50;;;;;;;;;;;;;;;2.55;87.14;100521.06;7348251;19;20326;-64
2022/12/10 03:59:17;;;;;;;;;;;;;;;2.54;86.77;100510.78;7349166;19;19919;-65
2022/12/10 04:01:43;;;;;;;;;;;;;;;2.52;85.81;100508.31;7343771;19;19930;-65
2022/12/10 04:04:10;;;;;;;;;;;;;;;2.53;86.17;100514.34;7350263;19;19919;-65
2022/12/10 04:06:38;;;;;;;;;;;;;;;2.52;85.91;100507.47;7345830;19;19930;-65
2022/12/10 04:09:05;;;;;;;;;;;;;;;2.49;85.70;100500.72;7350202;19;19934;-65
2022/12/10 04:11:32;;;;;;;;;;;;;;;2.49;85.28;100515.47;7348507;19;20308;-64
2022/12/10 04:16:34;;;;;;;;;;;;;;;2.45;84.96;100499.28;7348038;19;20223;-64
2022/12/10 04:19:11;;;;;;;;;;;;;;;2.44;85.04;100502.81;7350219;19;20680;-64
2022/12/10 04:26:51;;;;;;;;;;;;;;;2.46;84.82;100507.91;7347338;19;19915;-65
2022/12/10 04:29:19;;;;;;;;;;;;;;;2.46;84.99;100502.72;7348692;19;19933;-63
2022/12/10 04:31:45;;;;;;;;;;;;;;;2.42;84.76;100502.13;7346628;19;19927;-63
2022/12/10 04:34:12;;;;;;;;;;;;;;;2.41;84.31;100504.81;7350424;19;19923;-65
2022/12/10 04:36:39;;;;;;;;;;;;;;;2.37;84.80;100506.81;7343556;19;19926;-64
2022/12/10 04:39:06;;;;;;;;;;;;;;;2.38;84.72;100516.25;7347275;19;19925;-64
2022/12/10 04:41:33;;;;;;;;;;;;;;;2.38;84.73;100511.06;7349334;19;19950;-64
2022/12/10 04:43:59;;;;;;;;;;;;;;;2.38;84.81;100510.25;7347018;19;19926;-65
2022/12/10 04:46:27;;;;;;;;;;;;;;;2.38;84.97;100523.22;7349389;19;19944;-64
2022/12/10 04:48:54;;;;;;;;;;;;;;;2.37;84.81;100524.16;7349160;19;19919;-64
2022/12/10 04:51:21;;;;;;;;;;;;;;;2.38;85.06;100529.25;7344426;19;19926;-65
2022/12/10 04:53:47;;;;;;;;;;;;;;;2.40;85.07;100524.75;7348390;19;19921;-64
2022/12/10 04:56:14;;;;;;;;;;;;;;;2.40;84.72;100529.13;7348709;19;19915;-65
2022/12/10 04:58:41;;;;;;;;;;;;;;;2.40;84.59;100521.31;7349459;19;20738;-63
2022/12/10 05:01:09;;;;;;;;;;;;;;;2.41;84.74;100518.63;7347209;19;19910;-64
2022/12/10 05:03:36;;;;;;;;;;;;;;;2.39;84.72;100511.88;7348031;19;20372;-64
2022/12/10 05:06:04;;;;;;;;;;;;;;;2.35;84.13;100513.03;7346523;19;19932;-64
2022/12/10 05:08:31;;;;;;;;;;;;;;;2.34;84.12;100506.19;7350254;19;19937;-64
2022/12/10 05:11:02;;;;;;;;;;;;;;;2.32;84.12;100510.66;7346564;19;19923;-65
2022/12/10 05:13:28;;;;;;;;;;;;;;;2.30;84.92;100512.53;7349970;19;19926;-65
2022/12/10 05:15:55;;;;;;;;;;;;;;;2.32;85.23;100508.06;7350317;19;19934;-64
2022/12/10 05:18:22;;;;;;;;;;;;;;;2.33;86.38;100513.16;7352448;19;20345;-64
2022/12/10 05:20:49;;;;;;;;;;;;;;;2.35;87.09;100511.28;7351036;19;19915;-64
2022/12/10 05:26:02;;;;;;;;;;;;;;;2.39;87.67;100506.69;7355123;19;19919;-64
2022/12/10 05:28:30;;;;;;;;;;;;;;;2.35;86.85;100513.03;7354035;19;19933;-64
2022/12/10 05:30:57;;;;;;;;;;;;;;;2.33;86.38;100514.94;7350915;19;19971;-65
2022/12/10 05:33:24;;;;;;;;;;;;;;;2.33;85.42;100507.13;7353749;19;19918;-64
2022/12/10 05:35:55;;;;;;;;;;;;;;;2.35;85.55;100513.03;7350380;19;20399;-64
2022/12/10 05:38:22;;;;;;;;;;;;;;;2.32;84.86;100506.31;7349530;19;19922;-65
2022/12/10 05:40:49;;;;;;;;;;;;;;;2.27;84.80;100508.41;7352069;19;19987;-64
2022/12/10 05:43:22;;;;;;;;;;;;;;;2.25;84.73;100514.63;7353887;19;19933;-64
2022/12/10 05:45:49;;;;;;;;;;;;;;;2.23;84.68;100519.09;7351754;19;19920;-64
2022/12/10 05:48:16;;;;;;;;;;;;;;;2.23;84.48;100519.09;7352668;19;19915;-64
2022/12/10 05:50:43;;;;;;;;;;;;;;;2.24;84.93;100520.75;7352239;19;19919;-64
2022/12/10 05:53:10;;;;;;;;;;;;;;;2.23;84.70;100517.34;7353236;19;20323;-66
2022/12/10 05:55:37;;;;;;;;;;;;;;;2.22;84.56;100520.88;7351604;19;19941;-65
2022/12/10 05:58:03;;;;;;;;;;;;;;;2.23;84.56;100524.28;7351836;19;20498;-64
2022/12/10 06:00:30;;;;;;;;;;;;;;;2.23;84.86;100524.28;7352567;19;19922;-65
2022/12/10 06:02:57;;;;;;;;;;;;;;;2.23;84.51;100526.88;7352969;19;20224;-64
2022/12/10 06:05:24;;;;;;;;;;;;;;;2.23;84.63;100519.94;7352064;19;19941;-64
2022/12/10 06:07:51;;;;;;;;;;;;;;;2.26;84.62;100527.50;7351322;19;19949;-64
2022/12/10 06:10:18;;;;;;;;;;;;;;;2.23;84.86;100519.94;7353055;19;19925;-64
2022/12/10 06:12:45;;;;;;;;;;;;;;;2.22;84.71;100525.22;7354157;19;19926;-64
2022/12/10 06:15:11;;;;;;;;;;;;;;;2.21;84.65;100527.00;7351640;19;19922;-65
2022/12/10 06:17:38;;;;;;;;;;;;;;;2.22;84.80;100520.03;7349676;19;19952;-64
2022/12/10 06:20:05;;;;;;;;;;;;;;;2.19;84.67;100531.44;7353455;19;19934;-64
2022/12/10 06:22:33;;;;;;;;;;;;;;;2.17;84.62;100525.53;7348463;19;19935;-64
2022/12/10 06:25:00;;;;;;;;;;;;;;;2.14;84.27;100523.97;7348613;19;19933;-64
2022/12/10 06:27:29;;;;;;;;;;;;;;;2.15;84.45;100527.41;7351510;19;19946;-64
2022/12/10 06:29:55;;;;;;;;;;;;;;;2.14;84.63;100520.56;7353187;19;20493;-64
2022/12/10 06:32:24;;;;;;;;;;;;;;;2.12;85.22;100522.44;7350018;19;20335;-64
2022/12/10 06:34:50;;;;;;;;;;;;;;;2.07;85.93;100525.38;7350752;19;19919;-66
2022/12/10 06:37:17;;;;;;;;;;;;;;;2.08;86.73;100524.41;7349252;19;19919;-64
2022/12/10 06:39:44;;;;;;;;;;;;;;;2.08;87.44;100534.78;7349770;19;19923;-64
2022/12/10 06:42:11;;;;;;;;;;;;;;;2.10;87.67;100543.28;7350148;19;19998;-64
2022/12/10 06:44:38;;;;;;;;;;;;;;;2.06;87.09;100534.06;7350547;19;20418;-65
2022/12/10 06:47:05;;;;;;;;;;;;;;;2.06;86.77;100528.88;7350171;19;19925;-64
2022/12/10 06:49:31;;;;;;;;;;;;;;;2.04;86.83;100522.97;7351889;19;19937;-63
2022/12/10 06:51:58;;;;;;;;;;;;;;;2.06;86.43;100533.25;7347185;19;20339;-64
2022/12/10 06:54:25;;;;;;;;;;;;;;;2.04;86.67;100533.34;7350002;19;19923;-64
2022/12/10 06:56:52;;;;;;;;;;;;;;;2.00;86.43;100525.88;7350997;19;19945;-64
2022/12/10 06:59:20;;;;;;;;;;;;;;;2.02;87.02;100524.03;7353631;19;19915;-64
2022/12/10 07:01:46;;;;;;;;;;;;;;;1.98;86.87;100528.56;7351651;19;19919;-63
2022/12/10 07:04:15;;;;;;;;;;;;;;;1.98;86.15;100535.53;7348434;19;19923;-65
2022/12/10 07:06:41;;;;;;;;;;;;;;;1.98;86.11;100532.94;7347140;19;19925;-66
2022/12/10 07:09:09;;;;;;;;;;;;;;;1.99;85.64;100537.19;7348819;19;19931;-65
2022/12/10 07:11:36;;;;;;;;;;;;;;;2.00;85.73;100538.84;7344752;19;21206;-65
2022/12/10 07:14:03;;;;;;;;;;;;;;;2.01;85.50;100536.16;7350949;19;19923;-65
2022/12/10 07:16:31;;;;;;;;;;;;;;;2.02;85.27;100542.19;7351102;19;20689;-65
2022/12/10 07:18:59;;;;;;;;;;;;;;;2.02;85.52;100540.41;7347753;19;20008;-64
2022/12/10 07:21:31;;;;;;;;;;;;;;;2.05;85.91;100544.53;7347018;19;20411;-64
2022/12/10 07:24:00;;;;;;;;;;;;;;;2.04;86.06;100542.88;7351797;19;19922;-65
2022/12/10 07:26:29;;;;;;;;;;;;;;;2.04;85.76;100543.72;7350916;19;19927;-65
2022/12/10 07:28:56;;;;;;;;;;;;;;;2.06;85.95;100544.44;7352567;19;20486;-64
2022/12/10 07:31:22;;;;;;;;;;;;;;;2.08;85.68;100546.94;7348455;19;19922;-65
2022/12/10 07:33:51;;;;;;;;;;;;;;;2.11;85.39;100544.13;7348855;19;19922;-64
2022/12/10 07:36:18;;;;;;;;;;;;;;;2.13;85.12;100547.47;7347506;19;20912;-65
2022/12/10 07:38:46;;;;;;;;;;;;;;;2.13;84.86;100547.47;7347578;19;20348;-64
2022/12/10 07:41:13;;;;;;;;;;;;;;;2.11;84.91;100552.75;7347366;19;20013;-64
2022/12/10 07:43:41;;;;;;;;;;;;;;;2.09;84.68;100539.03;7351984;19;20014;-65
2022/12/10 07:46:09;;;;;;;;;;;;;;;2.09;84.59;100543.38;7348063;19;19922;-65
2022/12/10 07:48:37;;;;;;;;;;;;;;;2.09;84.91;100541.63;7349505;19;19931;-65
2022/12/10 07:51:05;;;;;;;;;;;;;;;2.08;84.77;100539.97;7348110;19;19919;-65
2022/12/10 07:53:32;;;;;;;;;;;;;;;2.09;84.71;100541.63;7352037;19;20485;-66
2022/12/10 07:55:59;;;;;;;;;;;;;;;2.12;84.80;100543.19;7348849;19;19926;-64
2022/12/10 07:58:26;;;;;;;;;;;;;;;2.15;85.02;100551.59;7350251;19;20372;-66
2022/12/10 08:00:52;;;;;;;;;;;;;;;2.15;84.93;100549.00;7349833;19;20706;-64
2022/12/10 08:03:20;;;;;;;;;;;;;;;2.15;84.78;100550.75;7352080;19;19918;-65
2022/12/10 08:05:46;;;;;;;;;;;;;;;2.17;85.11;100546.31;7347968;19;20367;-65
2022/12/10 08:08:13;;;;;;;;;;;;;;;2.14;84.51;100547.31;7348722;19;20019;-64
2022/12/10 08:10:40;;;;;;;;;;;;;;;2.15;84.85;100550.75;7349931;19;19930;-64
2022/12/10 08:13:07;;;;;;;;;;;;;;;2.17;84.59;100551.50;7350247;19;20250;-65
2022/12/10 08:15:33;;;;;;;;;;;;;;;2.21;84.89;100552.94;7348658;19;19945;-64
2022/12/10 08:18:00;;;;;;;;;;;;;;;2.23;84.73;100556.25;7347510;19;19919;-65
2022/12/10 08:20:27;;;;;;;;;;;;;;;2.26;84.63;100552.63;7347240;19;20582;-64
2022/12/10 08:22:54;;;;;;;;;;;;;;;2.28;84.95;100555.94;7344214;19;19933;-64
2022/12/10 08:25:21;;;;;;;;;;;;;;;2.33;86.42;100565.06;7348587;19;19918;-65
2022/12/10 08:27:47;;;;;;;;;;;;;;;2.35;86.17;100570.13;7350421;19;19929;-64
2022/12/10 08:30:14;;;;;;;;;;;;;;;2.32;85.79;100573.78;7350751;19;20486;-64
2022/12/10 08:32:41;;;;;;;;;;;;;;;2.31;85.72;100574.72;7347302;19;20662;-64
2022/12/10 08:35:08;;;;;;;;;;;;;;;2.31;85.69;100581.66;7348073;19;20039;-67
2022/12/10 08:37:35;;;;;;;;;;;;;;;2.32;85.76;100578.16;7341862;19;20281;-64
2022/12/10 08:40:02;;;;;;;;;;;;;;;2.29;85.87;100571.38;7348007;19;20274;-64
2022/12/10 08:42:29;;;;;;;;;;;;;;;2.28;85.34;100577.53;7347827;19;19927;-65
2022/12/10 08:44:56;;;;;;;;;;;;;;;2.29;85.70;100586.13;7348931;19;19922;-64
2022/12/10 08:47:22;;;;;;;;;;;;;;;2.29;85.71;100581.75;7345030;19;20524;-65
2022/12/10 08:49:49;;;;;;;;;;;;;;;2.29;85.40;100576.56;7354752;19;19922;-65
2022/12/10 08:52:16;;;;;;;;;;;;;;;2.32;85.39;100576.38;7351134;19;19918;-65
2022/12/10 08:54:43;;;;;;;;;;;;;;;2.33;85.25;100575.44;7354422;19;19922;-66
2022/12/10 08:57:10;;;;;;;;;;;;;;;2.34;85.44;100578.84;7355343;19;20406;-64
2022/12/10 08:59:36;;;;;;;;;;;;;;;2.36;85.35;100579.59;7356930;19;19911;-64
2022/12/10 09:02:03;;;;;;;;;;;;;;;2.40;85.24;100581.84;7353750;19;19987;-64
2022/12/10 09:04:30;;;;;;;;;;;;;;;2.45;85.04;100584.13;7354560;19;20250;-64
2022/12/10 09:06:57;;;;;;;;;;;;;;;2.48;85.01;100583.94;7353030;19;20002;-65
2022/12/10 09:09:24;;;;;;;;;;;;;;;2.52;84.62;100582.78;7354188;19;20393;-65
2022/12/10 09:11:51;;;;;;;;;;;;;;;2.53;84.94;100580.06;7351530;19;19925;-64
2022/12/10 09:14:18;;;;;;;;;;;;;;;2.56;84.69;100585.03;7353459;19;20041;-65
2022/12/10 09:16:45;;;;;;;;;;;;;;;2.58;84.68;100585.78;7352017;19;19923;-65
2022/12/10 09:19:11;;;;;;;;;;;;;;;2.62;84.49;100581.19;7354443;19;20310;-63
2022/12/10 09:21:46;;;;;;;;;;;;;;;2.64;85.21;100594.06;7349547;19;19919;-64
2022/12/10 09:24:13;;;;;;;;;;;;;;;2.62;85.39;100588.16;7355710;19;19923;-65
2022/12/10 09:26:40;;;;;;;;;;;;;;;2.62;85.30;100585.56;7354773;19;19923;-64
2022/12/10 09:29:07;;;;;;;;;;;;;;;2.69;86.25;100586.78;7358159;19;19927;-65
2022/12/10 09:31:34;;;;;;;;;;;;;;;2.71;86.29;100585.72;7351642;19;19930;-65
2022/12/10 09:34:01;;;;;;;;;;;;;;;2.74;85.89;100589.88;7352637;19;19922;-64
2022/12/10 09:36:27;;;;;;;;;;;;;;;2.79;85.93;100587.78;7350087;19;20632;-65
2022/12/10 09:39:00;;;;;;;;;;;;;;;2.81;85.52;100589.31;7351683;19;19926;-64
2022/12/10 09:41:28;;;;;;;;;;;;;;;2.83;85.47;100589.22;7352857;19;21466;-65
2022/12/10 09:43:59;;;;;;;;;;;;;;;2.87;85.11;100590.66;7353384;19;19926;-66
2022/12/10 09:46:36;;;;;;;;;;;;;;;2.89;84.79;100594.81;7352122;19;19922;-64
2022/12/10 09:49:03;;;;;;;;;;;;;;;2.92;85.13;100596.34;7352452;19;19915;-64
2022/12/10 09:51:34;;;;;;;;;;;;;;;2.96;86.01;100595.19;7352130;19;19923;-64
2022/12/10 09:54:02;;;;;;;;;;;;;;;3.00;86.83;100596.63;7350353;19;19935;-65
2022/12/10 09:56:33;;;;;;;;;;;;;;;3.04;86.70;100598.09;7354542;19;19934;-65
2022/12/10 09:59:03;;;;;;;;;;;;;;;3.02;86.34;100589.56;7351740;19;19939;-64
2022/12/10 10:01:32;;;;;;;;;;;;;;;3.07;85.80;100595.25;7351876;19;19923;-64
2022/12/10 10:03:59;;;;;;;;;;;;;;;3.10;85.56;100597.63;7352500;19;19930;-64
2022/12/10 10:06:27;;;;;;;;;;;;;;;3.15;85.21;100605.91;7351115;19;19922;-64
2022/12/10 10:08:57;;;;;;;;;;;;;;;3.18;84.90;100595.31;7350841;19;20549;-65
2022/12/10 10:11:28;;;;;;;;;;;;;;;3.24;85.19;100594.03;7348011;19;19922;-65
2022/12/10 10:13:58;;;;;;;;;;;;;;;3.26;84.46;100605.13;7348450;19;21626;-66
2022/12/10 10:16:26;;;;;;;;;;;;;;;3.29;84.29;100599.72;7347350;19;20403;-65
2022/12/10 10:18:53;;;;;;;;;;;;;;;3.32;84.39;100602.09;7349977;19;20231;-64
2022/12/10 10:21:22;;;;;;;;;;;;;;;3.36;84.83;100611.31;7346324;19;19923;-65
2022/12/10 10:23:49;;;;;;;;;;;;;;;3.40;85.33;100603.19;7353297;19;19998;-65
2022/12/10 10:26:16;;;;;;;;;;;;;;;3.44;85.17;100609.00;7353237;19;20760;-66
2022/12/10 10:28:43;;;;;;;;;;;;;;;3.50;85.30;100602.53;7353807;19;20260;-65
2022/12/10 10:31:15;;;;;;;;;;;;;;;3.52;84.93;100611.03;7350499;19;19918;-65
2022/12/10 10:33:48;;;;;;;;;;;;;;;3.55;84.53;100605.63;7351412;19;20037;-65
2022/12/10 10:36:15;;;;;;;;;;;;;;;3.59;84.37;100605.28;7346066;19;19923;-64
2022/12/10 10:38:47;;;;;;;;;;;;;;;3.62;83.76;100597.22;7349629;19;20247;-65
2022/12/10 10:41:14;;;;;;;;;;;;;;;3.68;83.76;100593.34;7350788;19;19921;-65
2022/12/10 10:43:44;;;;;;;;;;;;;;;3.76;84.60;100591.00;7350538;19;19923;-68
2022/12/10 10:46:11;;;;;;;;;;;;;;;3.81;85.05;100597.50;7352318;19;20678;-66
2022/12/10 10:48:39;;;;;;;;;;;;;;;3.79;83.91;100596.81;7352293;19;20014;-65
2022/12/10 10:51:15;;;;;;;;;;;;;;;3.78;82.87;100592.53;7347275;19;19919;-64
2022/12/10 10:53:44;;;;;;;;;;;;;;;3.81;82.98;100586.25;7352364;19;19935;-65
2022/12/10 10:56:16;;;;;;;;;;;;;;;3.86;83.06;100590.19;7349910;19;19915;-65
2022/12/10 10:58:53;;;;;;;;;;;;;;;3.90;83.79;100601.22;7350878;19;19940;-65
2022/12/10 11:01:21;;;;;;;;;;;;;;;3.94;83.82;100596.59;7351338;19;19947;-64
2022/12/10 11:03:50;;;;;;;;;;;;;;;3.94;83.84;100596.59;7353298;19;19922;-65
2022/12/10 11:06:17;;;;;;;;;;;;;;;3.98;83.34;100590.19;7350779;19;19919;-64
2022/12/10 11:08:45;;;;;;;;;;;;;;;4.04;82.96;100593.19;7349722;19;19919;-66
2022/12/10 11:11:16;;;;;;;;;;;;;;;4.34;89.81;100584.78;7348112;19;19919;-64
2022/12/10 11:13:43;;;;;;;;;;;;;;;4.57;90.70;100588.22;7294838;19;20070;-64
2022/12/10 11:16:19;;;;;;;;;;;;;;;4.64;87.70;100586.75;7337201;19;21512;-64
2022/12/10 11:18:57;;;;;;;;;;;;;;;4.59;84.83;100589.72;7343313;19;19915;-64
2022/12/10 11:21:24;;;;;;;;;;;;;;;4.54;82.34;100583.22;7346953;19;20387;-64
2022/12/10 11:23:52;;;;;;;;;;;;;;;4.54;81.85;100581.44;7345924;19;20351;-66
2022/12/10 11:26:29;;;;;;;;;;;;;;;4.55;81.89;100587.50;7350439;19;19927;-64
2022/12/10 11:29:05;;;;;;;;;;;;;;;4.56;81.71;100583.94;7349473;19;20461;-64
2022/12/10 11:31:41;;;;;;;;;;;;;;;4.59;81.35;100591.50;7347386;19;19933;-64
2022/12/10 11:34:18;;;;;;;;;;;;;;;4.59;81.70;100589.72;7349634;19;20415;-65
2022/12/10 11:36:56;;;;;;;;;;;;;;;4.63;82.46;100587.69;7345710;19;19919;-65
2022/12/10 11:39:33;;;;;;;;;;;;;;;4.69;82.60;100587.22;7350362;19;19923;-64
2022/12/10 11:42:09;;;;;;;;;;;;;;;4.72;82.67;100589.59;7354043;19;19951;-64
2022/12/10 11:44:46;;;;;;;;;;;;;;;4.74;82.19;100583.31;7352754;19;19949;-64
2022/12/10 11:47:19;;;;;;;;;;;;;;;4.80;82.04;100579.38;7352764;19;19926;-64
2022/12/10 11:49:46;;;;;;;;;;;;;;;4.83;82.77;100586.13;7350897;19;19922;-65
2022/12/10 11:52:14;;;;;;;;;;;;;;;4.87;83.94;100574.53;7347558;19;20027;-65
2022/12/10 11:54:49;;;;;;;;;;;;;;;4.90;83.92;100582.09;7346925;19;19922;-64
2022/12/10 11:57:16;;;;;;;;;;;;;;;4.90;82.73;100569.88;7343872;19;19922;-64
2022/12/10 11:59:48;;;;;;;;;;;;;;;4.92;82.53;100573.22;7342334;19;19934;-64
2022/12/10 12:02:48;;;;;;;;;;;;;;;4.95;82.01;100570.34;7338540;19;20029;-64
2022/12/10 12:05:24;;;;;;;;;;;;;;;4.96;80.98;100569.41;7347921;19;19915;-65
2022/12/10 12:07:51;;;;;;;;;;;;;;;4.98;80.79;100571.88;7342617;19;19915;-64
2022/12/10 12:10:28;;;;;;;;;;;;;;;5.01;80.53;100566.41;7344981;19;20025;-64
2022/12/10 12:13:08;;;;;;;;;;;;;;;5.04;80.88;100563.56;7345926;19;20775;-63
2022/12/10 12:15:38;;;;;;;;;;;;;;;5.09;82.03;100566.63;7344822;19;19962;-64
2022/12/10 12:18:08;;;;;;;;;;;;;;;5.13;83.27;100563.63;7343012;19;20954;-64
2022/12/10 12:20:39;;;;;;;;;;;;;;;5.18;83.37;100563.28;7347573;19;19914;-64
2022/12/10 12:23:16;;;;;;;;;;;;;;;5.24;82.59;100565.38;7343686;19;20387;-65
2022/12/10 12:25:46;;;;;;;;;;;;;;;5.30;82.46;100553.59;7348110;19;19929;-63
2022/12/10 12:28:23;;;;;;;;;;;;;;;5.35;82.09;100565.31;7351315;19;19921;-65
2022/12/10 12:30:57;;;;;;;;;;;;;;;5.37;81.19;100560.00;7349385;19;19982;-63
2022/12/10 12:33:34;;;;;;;;;;;;;;;5.41;81.95;100564.81;7350186;19;20560;-65
2022/12/10 12:36:06;;;;;;;;;;;;;;;5.38;81.11;100565.09;7353367;19;19919;-65
2022/12/10 12:38:43;;;;;;;;;;;;;;;5.38;80.79;100565.09;7355937;19;19939;-65
2022/12/10 12:41:15;;;;;;;;;;;;;;;5.40;79.97;100555.34;7357014;19;20282;-64
2022/12/10 12:43:46;;;;;;;;;;;;;;;5.44;80.34;100561.13;7357196;19;20693;-65
2022/12/10 12:46:16;;;;;;;;;;;;;;;5.48;80.58;100558.16;7356085;19;19919;-64
2022/12/10 12:48:51;;;;;;;;;;;;;;;5.48;80.12;100559.94;7355017;19;19950;-64
2022/12/10 12:51:26;;;;;;;;;;;;;;;5.46;80.38;100551.41;7353969;19;19978;-64
2022/12/10 12:53:53;;;;;;;;;;;;;;;5.46;80.76;100549.63;7357363;19;20227;-62
2022/12/10 12:56:30;;;;;;;;;;;;;;;5.49;80.57;100551.97;7356141;19;19911;-63
2022/12/10 12:59:03;;;;;;;;;;;;;;;5.54;80.31;100559.41;7355062;19;19923;-65
2022/12/10 13:01:38;;;;;;;;;;;;;;;5.56;79.42;100557.50;7353852;19;19923;-65
2022/12/10 13:04:05;;;;;;;;;;;;;;;5.58;79.57;100548.63;7358249;19;20522;-64
2022/12/10 13:06:34;;;;;;;;;;;;;;;5.64;79.94;100557.69;7354061;19;19930;-63